createdAt,value
2023-11-25T00:02:25.364Z,50.75
2023-11-25T00:05:11.099Z,50.98
2023-11-25T00:07:57.015Z,50.78
2023-11-25T00:10:42.398Z,50.84
2023-11-25T00:13:27.801Z,50.85
2023-11-25T00:16:13.436Z,50.71
2023-11-25T00:18:58.696Z,50.80
2023-11-25T00:21:44.255Z,50.85
2023-11-25T00:24:29.740Z,50.84
2023-11-25T00:27:15.634Z,50.86
2023-11-25T00:30:01.067Z,50.88
2023-11-25T00:32:46.572Z,50.90
2023-11-25T00:35:32.740Z,50.96
2023-11-25T00:38:19.357Z,50.88
2023-11-25T00:41:06.706Z,50.85
2023-11-25T00:43:52.405Z,50.89
2023-11-25T00:46:39.411Z,50.83
2023-11-25T00:49:26.228Z,51.00
2023-11-25T00:52:11.532Z,51.00
2023-11-25T00:54:56.788Z,50.98
2023-11-25T00:57:42.249Z,50.97
2023-11-25T01:00:27.681Z,50.88
2023-11-25T01:03:13.207Z,51.00
2023-11-25T01:06:00.950Z,50.88
2023-11-25T01:08:46.434Z,50.87
2023-11-25T01:11:31.931Z,50.94
2023-11-25T01:14:17.222Z,51.27
2023-11-25T01:17:03.786Z,50.88
2023-11-25T01:19:49.342Z,50.96
2023-11-25T01:22:36.366Z,50.99
2023-11-25T01:25:22.466Z,50.85
2023-11-25T01:28:08.083Z,50.97
2023-11-25T01:30:53.440Z,50.96
2023-11-25T01:33:38.908Z,50.96
2023-11-25T01:36:24.909Z,50.98
2023-11-25T01:39:10.550Z,50.96
2023-11-25T01:41:55.950Z,51.01
2023-11-25T01:44:41.213Z,51.05
2023-11-25T01:47:26.902Z,51.03
2023-11-25T01:50:12.671Z,51.07
2023-11-25T01:52:59.346Z,50.94
2023-11-25T01:55:45.405Z,51.08
2023-11-25T01:58:32.088Z,50.94
2023-11-25T02:01:19.228Z,51.04
2023-11-25T02:04:04.798Z,50.98
2023-11-25T02:06:51.135Z,51.06
2023-11-25T02:09:36.865Z,50.99
2023-11-25T02:12:22.892Z,51.03
2023-11-25T02:15:12.055Z,50.93
2023-11-25T02:17:57.723Z,50.94
2023-11-25T02:20:43.196Z,50.97
2023-11-25T02:23:28.540Z,51.02
2023-11-25T02:26:15.247Z,51.00
2023-11-25T02:29:00.471Z,50.98
2023-11-25T02:31:45.922Z,50.99
2023-11-25T02:34:31.349Z,50.92
2023-11-25T02:37:17.399Z,51.07
2023-11-25T02:40:02.719Z,50.95
2023-11-25T02:42:48.683Z,51.00
2023-11-25T02:45:34.750Z,50.95
2023-11-25T02:48:20.806Z,50.93
2023-11-25T02:51:08.768Z,50.93
2023-11-25T02:53:54.178Z,51.00
2023-11-25T02:56:39.560Z,50.90
2023-11-25T02:59:24.919Z,50.85
2023-11-25T03:02:11.440Z,50.94
2023-11-25T03:04:56.755Z,50.94
2023-11-25T03:07:45.821Z,50.95
2023-11-25T03:10:31.439Z,50.87
2023-11-25T03:13:17.764Z,50.77
2023-11-25T03:16:03.340Z,50.87
2023-11-25T03:18:48.864Z,50.94
2023-11-25T03:21:35.270Z,50.95
2023-11-25T03:24:22.943Z,50.92
2023-11-25T03:27:08.813Z,50.86
2023-11-25T03:29:55.369Z,50.86
2023-11-25T03:32:41.009Z,50.94
2023-11-25T03:35:26.268Z,51.04
2023-11-25T03:38:11.664Z,50.95
2023-11-25T03:40:57.572Z,50.97
2023-11-25T03:43:42.775Z,50.90
2023-11-25T03:46:28.704Z,50.78
2023-11-25T03:49:14.061Z,50.83
2023-11-25T03:51:59.585Z,50.92
2023-11-25T03:54:45.110Z,50.85
2023-11-25T03:57:31.022Z,50.83
2023-11-25T04:00:17.332Z,50.82
2023-11-25T04:03:04.743Z,50.86
2023-11-25T04:05:50.733Z,50.77
2023-11-25T04:08:36.632Z,51.05
2023-11-25T04:11:22.189Z,50.81
2023-11-25T04:14:07.628Z,50.81
2023-11-25T04:16:53.113Z,50.97
2023-11-25T04:19:38.458Z,50.88
2023-11-25T04:22:25.049Z,50.87
2023-11-25T04:25:11.246Z,50.78
2023-11-25T04:27:56.934Z,50.74
2023-11-25T04:30:42.745Z,50.83
2023-11-25T04:33:28.300Z,50.82
2023-11-25T04:36:19.187Z,50.77
2023-11-25T04:39:06.682Z,50.77
2023-11-25T04:41:51.810Z,50.94
2023-11-25T04:44:37.119Z,50.71
2023-11-25T04:47:22.742Z,50.75
2023-11-25T04:50:09.388Z,50.37
2023-11-25T04:52:54.801Z,50.82
2023-11-25T04:55:40.636Z,50.85
2023-11-25T04:58:25.920Z,50.81
2023-11-25T05:01:11.802Z,50.84
2023-11-25T05:03:57.035Z,50.85
2023-11-25T05:06:45.664Z,50.86
2023-11-25T05:09:31.030Z,50.75
2023-11-25T05:12:16.250Z,50.85
2023-11-25T05:15:02.043Z,50.87
2023-11-25T05:17:48.560Z,50.93
2023-11-25T05:20:34.380Z,50.66
2023-11-25T05:23:19.732Z,50.84
2023-11-25T05:26:05.232Z,50.77
2023-11-25T05:28:51.133Z,50.88
2023-11-25T05:31:36.889Z,50.96
2023-11-25T05:34:22.469Z,50.85
2023-11-25T05:37:09.417Z,50.92
2023-11-25T05:39:56.332Z,51.01
2023-11-25T05:42:49.266Z,51.01
2023-11-25T05:45:35.407Z,50.98
2023-11-25T05:48:23.864Z,51.05
2023-11-25T05:51:09.217Z,50.95
2023-11-25T05:53:54.468Z,50.96
2023-11-25T05:56:43.937Z,50.96
2023-11-25T05:59:29.619Z,50.99
2023-11-25T06:02:14.856Z,51.01
2023-11-25T06:05:00.397Z,51.06
2023-11-25T06:07:46.093Z,50.88
2023-11-25T06:10:31.405Z,51.13
2023-11-25T06:13:17.124Z,50.96
2023-11-25T06:16:02.574Z,50.74
2023-11-25T06:18:48.138Z,50.75
2023-11-25T06:21:33.427Z,50.69
2023-11-25T06:24:18.788Z,50.55
2023-11-25T06:27:04.499Z,50.58
2023-11-25T06:29:50.698Z,50.38
2023-11-25T06:32:35.978Z,50.53
2023-11-25T06:35:24.805Z,50.54
2023-11-25T06:38:10.346Z,50.50
2023-11-25T06:40:55.790Z,50.38
2023-11-25T06:43:41.808Z,50.44
2023-11-25T06:46:27.599Z,50.51
2023-11-25T06:49:16.557Z,50.32
2023-11-25T06:52:01.723Z,50.72
2023-11-25T06:54:47.650Z,50.43
2023-11-25T06:57:33.851Z,50.91
2023-11-25T07:00:19.177Z,50.67
2023-11-25T07:03:05.364Z,50.65
2023-11-25T07:05:51.240Z,50.70
2023-11-25T07:08:36.863Z,50.91
2023-11-25T07:11:24.493Z,50.89
2023-11-25T07:14:09.717Z,50.55
2023-11-25T07:16:55.482Z,50.42
2023-11-25T07:19:42.598Z,49.96
2023-11-25T07:22:28.391Z,50.39
2023-11-25T07:25:14.507Z,50.99
2023-11-25T07:28:00.201Z,50.34
2023-11-25T07:30:46.003Z,50.41
2023-11-25T07:33:32.975Z,50.50
2023-11-25T07:36:19.905Z,50.84
2023-11-25T07:39:06.293Z,50.40
2023-11-25T07:41:55.127Z,50.46
2023-11-25T07:44:40.504Z,50.37
2023-11-25T07:47:26.071Z,50.42
2023-11-25T07:50:12.112Z,50.32
2023-11-25T07:52:58.278Z,50.41
2023-11-25T07:55:45.325Z,50.29
2023-11-25T07:58:30.819Z,50.36
2023-11-25T08:01:16.013Z,50.17
2023-11-25T08:04:01.730Z,50.17
2023-11-25T08:06:47.053Z,50.09
2023-11-25T08:09:34.019Z,50.19
2023-11-25T08:12:19.818Z,50.31
2023-11-25T08:15:06.162Z,50.25
2023-11-25T08:17:51.820Z,50.17
2023-11-25T08:20:37.790Z,50.22
2023-11-25T08:23:23.071Z,50.42
2023-11-25T08:26:21.576Z,50.45
2023-11-25T08:29:07.374Z,50.38
2023-11-25T08:31:52.971Z,50.61
2023-11-25T08:34:38.438Z,50.97
2023-11-25T08:40:18.391Z,50.45
2023-11-25T08:43:10.009Z,50.30
2023-11-25T08:45:56.678Z,50.14
2023-11-25T08:48:43.217Z,50.25
2023-11-25T08:51:28.982Z,50.30
2023-11-25T08:54:15.191Z,50.57
2023-11-25T08:57:01.980Z,50.45
2023-11-25T08:59:47.626Z,50.70
2023-11-25T09:02:34.107Z,50.53
2023-11-25T09:05:23.004Z,50.64
2023-11-25T09:08:10.689Z,50.47
2023-11-25T09:13:44.131Z,50.11
2023-11-25T09:16:30.043Z,50.35
2023-11-25T09:19:15.667Z,51.38
2023-11-25T09:22:01.150Z,51.01
2023-11-25T09:24:46.571Z,51.10
2023-11-25T09:27:32.277Z,51.30
2023-11-25T09:30:19.316Z,51.65
2023-11-25T09:33:05.226Z,51.20
2023-11-25T09:35:51.220Z,51.26
2023-11-25T09:38:37.122Z,51.10
2023-11-25T09:41:23.332Z,51.18
2023-11-25T09:44:09.874Z,50.97
2023-11-25T09:46:55.451Z,50.87
2023-11-25T09:49:40.918Z,51.06
2023-11-25T09:52:31.239Z,50.40
2023-11-25T09:55:21.939Z,50.68
2023-11-25T09:58:08.261Z,51.30
2023-11-25T10:00:57.347Z,50.76
2023-11-25T10:03:46.728Z,50.50
2023-11-25T10:06:32.414Z,50.30
2023-11-25T10:09:18.248Z,49.92
2023-11-25T10:12:03.953Z,50.11
2023-11-25T10:14:50.671Z,50.20
2023-11-25T10:17:37.592Z,49.77
2023-11-25T10:20:27.096Z,50.15
2023-11-25T10:23:22.101Z,50.10
2023-11-25T10:26:08.106Z,50.12
2023-11-25T10:28:57.176Z,50.15
2023-11-25T10:31:44.078Z,50.10
2023-11-25T10:34:29.793Z,50.05
2023-11-25T10:37:21.828Z,50.48
2023-11-25T10:40:11.557Z,50.54
2023-11-25T10:42:58.261Z,50.57
2023-11-25T10:45:47.292Z,50.20
2023-11-25T10:48:33.792Z,50.46
2023-11-25T10:51:20.391Z,50.87
2023-11-25T10:54:09.194Z,50.23
2023-11-25T10:56:55.826Z,50.80
2023-11-25T10:59:42.003Z,50.45
2023-11-25T11:02:37.855Z,50.85
2023-11-25T11:05:29.031Z,50.69
2023-11-25T11:08:23.862Z,50.63
2023-11-25T11:11:16.675Z,50.46
2023-11-25T11:14:12.148Z,50.61
2023-11-25T11:17:25.528Z,50.49
2023-11-25T11:20:13.639Z,50.40
2023-11-25T11:23:01.410Z,50.38
2023-11-25T11:26:13.660Z,50.15
2023-11-25T11:29:23.808Z,50.21
2023-11-25T11:32:11.122Z,50.16
2023-11-25T11:34:57.561Z,50.11
2023-11-25T11:37:49.507Z,50.19
2023-11-25T11:40:36.017Z,50.13
2023-11-25T11:43:21.582Z,51.11
2023-11-25T11:46:07.274Z,50.75
2023-11-25T11:48:52.655Z,51.65
2023-11-25T11:51:38.508Z,50.94
2023-11-25T11:54:25.836Z,51.24
2023-11-25T11:57:15.702Z,51.09
2023-11-25T12:00:16.944Z,51.32
2023-11-25T12:03:02.285Z,51.09
2023-11-25T12:05:47.856Z,51.26
2023-11-25T12:08:35.605Z,51.20
2023-11-25T12:11:21.350Z,51.17
2023-11-25T12:14:06.662Z,51.17
2023-11-25T12:16:53.561Z,51.80
2023-11-25T12:19:39.187Z,50.93
2023-11-25T12:22:24.928Z,50.93
2023-11-25T12:25:20.719Z,50.88
2023-11-25T12:28:08.777Z,51.53
2023-11-25T12:30:54.511Z,52.31
2023-11-25T12:33:40.934Z,51.45
2023-11-25T12:36:26.339Z,51.76
2023-11-25T12:39:13.703Z,51.86
2023-11-25T12:42:03.122Z,52.17
2023-11-25T12:44:52.069Z,51.31
2023-11-25T12:47:50.561Z,53.29
2023-11-25T12:51:08.652Z,51.92
2023-11-25T12:53:58.414Z,51.52
2023-11-25T12:56:50.539Z,51.42
2023-11-25T12:59:36.440Z,50.63
2023-11-25T13:02:22.840Z,50.34
2023-11-25T13:05:09.171Z,50.30
2023-11-25T13:07:55.508Z,50.19
2023-11-25T13:10:41.237Z,50.18
2023-11-25T13:13:30.365Z,49.82
2023-11-25T13:16:16.281Z,50.05
2023-11-25T13:19:03.812Z,50.07
2023-11-25T13:21:50.709Z,50.27
2023-11-25T13:24:36.033Z,50.27
2023-11-25T13:27:21.439Z,50.27
2023-11-25T13:30:07.567Z,50.12
2023-11-25T13:32:55.968Z,50.30
2023-11-25T13:35:41.386Z,50.39
2023-11-25T13:38:27.016Z,50.49
2023-11-25T13:41:12.477Z,50.58
2023-11-25T13:43:58.318Z,50.68
2023-11-25T13:46:44.435Z,50.70
2023-11-25T13:49:31.386Z,50.55
2023-11-25T13:52:18.913Z,50.37
2023-11-25T13:55:07.269Z,50.40
2023-11-25T13:57:54.094Z,51.09
2023-11-25T14:00:40.240Z,51.78
2023-11-25T14:03:26.742Z,51.61
2023-11-25T14:06:13.365Z,51.70
2023-11-25T14:09:00.233Z,52.04
2023-11-25T14:11:45.911Z,52.29
2023-11-25T14:14:31.600Z,51.79
2023-11-25T14:17:18.353Z,52.21
2023-11-25T14:20:25.107Z,51.99
2023-11-25T14:23:11.782Z,54.99
2023-11-25T14:25:57.297Z,52.78
2023-11-25T14:28:42.946Z,52.90
2023-11-25T14:31:32.232Z,52.07
2023-11-25T14:34:17.529Z,52.86
2023-11-25T14:37:03.117Z,52.96
2023-11-25T14:39:55.063Z,52.85
2023-11-25T14:42:46.545Z,52.79
2023-11-25T14:45:32.318Z,52.72
2023-11-25T14:48:17.595Z,52.15
2023-11-25T14:51:03.100Z,52.07
2023-11-25T14:53:48.833Z,51.72
2023-11-25T14:56:34.934Z,51.68
2023-11-25T14:59:20.246Z,51.56
2023-11-25T15:02:06.022Z,51.13
2023-11-25T15:04:51.608Z,50.96
2023-11-25T15:07:39.303Z,50.88
2023-11-25T15:10:26.923Z,51.54
2023-11-25T15:13:12.741Z,51.01
2023-11-25T15:15:58.582Z,51.41
2023-11-25T15:18:44.010Z,51.47
2023-11-25T15:21:29.906Z,50.78
2023-11-25T15:24:17.860Z,50.92
2023-11-25T15:27:03.943Z,50.45
2023-11-25T15:30:02.726Z,50.47
2023-11-25T15:32:47.907Z,50.88
2023-11-25T15:35:33.685Z,50.55
2023-11-25T15:38:19.283Z,50.88
2023-11-25T15:41:04.775Z,51.58
2023-11-25T15:43:50.904Z,50.89
2023-11-25T15:46:36.385Z,51.04
2023-11-25T15:49:21.873Z,50.70
2023-11-25T15:52:07.826Z,51.01
2023-11-25T15:54:53.544Z,51.34
2023-11-25T15:57:39.389Z,50.91
2023-11-25T16:00:25.045Z,50.72
2023-11-25T16:03:10.862Z,50.99
2023-11-25T16:05:57.262Z,50.87
2023-11-25T16:08:43.752Z,51.10
2023-11-25T16:11:29.571Z,51.33
2023-11-25T16:14:15.507Z,51.33
2023-11-25T16:17:01.953Z,51.09
2023-11-25T16:19:47.187Z,51.24
2023-11-25T16:22:32.537Z,51.61
2023-11-25T16:25:17.967Z,50.89
2023-11-25T16:28:04.389Z,51.60
2023-11-25T16:30:50.429Z,51.03
2023-11-25T16:33:36.763Z,50.95
2023-11-25T16:36:22.646Z,51.22
2023-11-25T16:39:08.929Z,51.15
2023-11-25T16:41:54.610Z,50.99
2023-11-25T16:44:40.514Z,50.96
2023-11-25T16:47:25.713Z,50.99
2023-11-25T16:50:11.134Z,51.01
2023-11-25T16:52:56.537Z,51.11
2023-11-25T16:55:42.065Z,51.20
2023-11-25T16:58:27.477Z,51.21
2023-11-25T17:01:13.729Z,51.50
2023-11-25T17:03:59.678Z,51.22
2023-11-25T17:06:45.655Z,51.23
2023-11-25T17:09:30.924Z,50.70
2023-11-25T17:12:16.369Z,50.76
2023-11-25T17:15:02.056Z,51.14
2023-11-25T17:17:47.995Z,51.19
2023-11-25T17:20:33.398Z,51.19
2023-11-25T17:23:18.836Z,51.44
2023-11-25T17:26:06.057Z,51.68
2023-11-25T17:28:52.433Z,51.63
2023-11-25T17:31:38.177Z,51.24
2023-11-25T17:34:24.014Z,51.32
2023-11-25T17:37:09.735Z,51.47
2023-11-25T17:39:55.254Z,51.39
2023-11-25T17:42:40.859Z,51.86
2023-11-25T17:45:26.628Z,52.31
2023-11-25T17:48:12.002Z,52.56
2023-11-25T17:50:58.162Z,51.47
2023-11-25T17:53:43.656Z,52.03
2023-11-25T17:56:29.053Z,50.35
2023-11-25T17:59:14.610Z,50.26
2023-11-25T18:02:00.154Z,50.56
2023-11-25T18:04:45.891Z,50.67
2023-11-25T18:07:31.166Z,50.76
2023-11-25T18:10:16.702Z,53.53
2023-11-25T18:13:02.701Z,51.27
2023-11-25T18:15:48.235Z,51.13
2023-11-25T18:18:34.366Z,51.13
2023-11-25T18:21:19.944Z,50.33
2023-11-25T18:24:06.197Z,50.30
2023-11-25T18:26:51.974Z,50.25
2023-11-25T18:29:37.510Z,50.27
2023-11-25T18:32:23.007Z,50.58
2023-11-25T18:35:10.104Z,50.77
2023-11-25T18:37:55.463Z,50.84
2023-11-25T18:40:41.419Z,50.45
2023-11-25T18:43:26.861Z,50.11
2023-11-25T18:46:12.841Z,50.41
2023-11-25T18:48:58.839Z,50.58
2023-11-25T18:51:44.076Z,50.46
2023-11-25T18:54:31.957Z,50.56
2023-11-25T18:57:18.000Z,50.74
2023-11-25T19:00:04.789Z,50.80
2023-11-25T19:02:51.103Z,50.88
2023-11-25T19:05:36.849Z,50.86
2023-11-25T19:08:22.349Z,51.24
2023-11-25T19:11:09.224Z,51.65
2023-11-25T19:13:54.814Z,52.19
2023-11-25T19:16:41.423Z,52.54
2023-11-25T19:19:27.069Z,52.51
2023-11-25T19:22:12.650Z,52.50
2023-11-25T19:24:58.096Z,52.62
2023-11-25T19:27:43.937Z,52.58
2023-11-25T19:30:29.963Z,52.30
2023-11-25T19:33:15.624Z,52.25
2023-11-25T19:36:00.977Z,51.80
2023-11-25T19:38:46.530Z,52.91
2023-11-25T19:41:31.755Z,52.11
2023-11-25T19:44:17.576Z,53.08
2023-11-25T19:47:04.750Z,52.69
2023-11-25T19:49:50.320Z,52.79
2023-11-25T19:52:38.526Z,52.66
2023-11-25T19:55:24.542Z,52.30
2023-11-25T19:58:09.955Z,52.33
2023-11-25T20:00:58.376Z,52.28
2023-11-25T20:03:43.900Z,52.08
2023-11-25T20:06:29.244Z,52.75
2023-11-25T20:09:14.964Z,52.16
2023-11-25T20:12:00.574Z,51.97
2023-11-25T20:14:46.690Z,52.12
2023-11-25T20:17:32.052Z,52.23
2023-11-25T20:20:17.613Z,52.30
2023-11-25T20:23:04.301Z,52.01
2023-11-25T20:25:50.186Z,51.43
2023-11-25T20:28:36.242Z,50.80
2023-11-25T20:31:21.787Z,50.29
2023-11-25T20:34:08.274Z,50.51
2023-11-25T20:36:53.596Z,51.49
2023-11-25T20:39:39.095Z,50.45
2023-11-25T20:42:24.480Z,50.37
2023-11-25T20:45:10.125Z,50.10
2023-11-25T20:47:55.774Z,50.05
2023-11-25T20:50:41.416Z,50.21
2023-11-25T20:53:26.791Z,50.25
2023-11-25T20:56:12.225Z,50.21
2023-11-25T20:58:58.239Z,50.35
2023-11-25T21:01:44.261Z,50.38
2023-11-25T21:04:29.575Z,50.13
2023-11-25T21:07:14.991Z,50.07
2023-11-25T21:10:00.266Z,50.59
2023-11-25T21:12:45.635Z,50.36
2023-11-25T21:15:31.102Z,50.52
2023-11-25T21:18:17.724Z,50.59
2023-11-25T21:21:04.572Z,50.87
2023-11-25T21:23:50.171Z,50.62
2023-11-25T21:26:35.652Z,50.88
2023-11-25T21:29:20.998Z,50.84
2023-11-25T21:32:09.295Z,51.36
2023-11-25T21:34:56.907Z,51.78
2023-11-25T21:37:43.619Z,51.52
2023-11-25T21:40:29.173Z,51.55
2023-11-25T21:43:14.558Z,51.76
2023-11-25T21:46:00.053Z,51.73
2023-11-25T21:48:45.740Z,51.40
2023-11-25T21:51:31.516Z,51.69
2023-11-25T21:54:17.667Z,51.73
2023-11-25T21:57:03.536Z,52.08
2023-11-25T21:59:48.885Z,51.73
2023-11-25T22:02:34.829Z,51.59
2023-11-25T22:05:20.494Z,51.88
2023-11-25T22:08:05.889Z,51.96
2023-11-25T22:10:51.315Z,51.76
2023-11-25T22:13:36.790Z,51.80
2023-11-25T22:16:22.446Z,51.96
2023-11-25T22:19:07.817Z,52.67
2023-11-25T22:21:54.405Z,51.43
2023-11-25T22:24:40.935Z,50.76
2023-11-25T22:27:32.538Z,50.92
2023-11-25T22:30:18.624Z,50.43
2023-11-25T22:33:04.273Z,50.33
2023-11-25T22:35:56.489Z,50.36
2023-11-25T22:38:45.302Z,50.31
2023-11-25T22:41:31.759Z,50.25
2023-11-25T22:44:17.473Z,50.59
2023-11-25T22:47:03.220Z,50.49
2023-11-25T22:49:49.142Z,50.45
2023-11-25T22:52:34.458Z,50.52
2023-11-25T22:55:20.008Z,50.53
2023-11-25T22:58:06.459Z,50.58
2023-11-25T23:00:53.697Z,50.76
2023-11-25T23:03:39.933Z,50.81
2023-11-25T23:06:25.544Z,50.83
2023-11-25T23:09:11.340Z,50.80
2023-11-25T23:11:56.657Z,50.89
2023-11-25T23:14:43.309Z,50.84
2023-11-25T23:17:29.170Z,50.88
2023-11-25T23:20:14.729Z,50.71
2023-11-25T23:23:00.347Z,50.83
2023-11-25T23:25:48.318Z,50.84
2023-11-25T23:28:34.203Z,50.82
2023-11-25T23:31:19.401Z,50.61
2023-11-25T23:34:05.446Z,50.98
2023-11-25T23:36:50.804Z,50.77
2023-11-25T23:39:36.887Z,50.75
2023-11-25T23:42:22.742Z,50.71
2023-11-25T23:45:08.548Z,50.77
2023-11-25T23:47:53.989Z,50.76
2023-11-25T23:50:39.517Z,50.83
2023-11-25T23:53:25.032Z,50.82
2023-11-25T23:56:10.482Z,50.88
2023-11-25T23:58:55.690Z,51.02
